Time;durP1;ratioP1;P1;durP2;ratioP2;P2;SDS_P1;SDS_P2;PMS_P1;PMS_P2;Temp;Humidity;BMP_temperature;BMP_pressure;BME280_temperature;BME280_humidity;BME280_pressure;Samples;Min_cycle;Max_cycle;Signal;HPM_P1;HPM_P2
2023/09/28 00:02:46;;;;;;;16.17;9.18;;;17.30;99.90;;;;;;5022006;28;20146;-73
2023/09/28 00:05:13;;;;;;;16.83;9.48;;;17.20;99.90;;;;;;5022316;28;20106;-72
2023/09/28 00:07:43;;;;;;;14.65;9.32;;;17.20;99.90;;;;;;5013669;28;20046;-73
2023/09/28 00:10:11;;;;;;;15.77;9.65;;;17.20;99.90;;;;;;5006019;28;20556;-73
2023/09/28 00:12:40;;;;;;;13.80;8.43;;;17.20;99.90;;;;;;5021456;28;20056;-74
2023/09/28 00:15:06;;;;;;;13.93;8.75;;;17.20;99.90;;;;;;5005589;28;20049;-73
2023/09/28 00:17:33;;;;;;;15.15;9.00;;;17.20;99.90;;;;;;5022804;28;20124;-72
2023/09/28 00:19:58;;;;;;;11.27;8.55;;;17.20;99.90;;;;;;5005276;28;20807;-71
2023/09/28 00:22:24;;;;;;;13.55;8.60;;;17.20;99.90;;;;;;5022240;28;20040;-73
2023/09/28 00:24:50;;;;;;;12.70;8.57;;;17.10;99.90;;;;;;5023123;28;20492;-72
2023/09/28 00:27:15;;;;;;;11.82;8.60;;;17.10;99.90;;;;;;5004553;28;20393;-72
2023/09/28 00:29:41;;;;;;;14.98;8.35;;;17.10;99.90;;;;;;5021474;28;20073;-72
2023/09/28 00:32:07;;;;;;;11.52;8.05;;;17.10;99.90;;;;;;5021937;28;20140;-72
2023/09/28 00:34:33;;;;;;;14.05;8.27;;;17.10;99.90;;;;;;5022957;28;20045;-72
2023/09/28 00:36:59;;;;;;;11.63;7.38;;;17.10;99.90;;;;;;5020885;28;20056;-72
2023/09/28 00:39:26;;;;;;;14.93;7.20;;;17.10;99.90;;;;;;5023167;28;20068;-73
2023/09/28 00:41:52;;;;;;;13.07;7.72;;;17.10;99.90;;;;;;5025742;28;20049;-72
2023/09/28 00:44:17;;;;;;;12.63;7.85;;;17.10;99.90;;;;;;5025083;28;20044;-72
2023/09/28 00:46:43;;;;;;;14.07;6.68;;;17.10;99.90;;;;;;5024734;28;20049;-73
2023/09/28 00:49:12;;;;;;;10.27;7.18;;;17.10;99.90;;;;;;5025046;28;20049;-73
2023/09/28 00:51:39;;;;;;;10.70;6.78;;;17.10;99.90;;;;;;5025922;28;20257;-71
2023/09/28 00:54:06;;;;;;;12.10;8.00;;;17.10;99.90;;;;;;5024949;28;20050;-73
2023/09/28 00:56:32;;;;;;;11.88;7.20;;;17.00;99.90;;;;;;5024397;28;20064;-71
2023/09/28 00:58:59;;;;;;;10.88;6.97;;;17.00;99.90;;;;;;5025365;28;20042;-72
2023/09/28 01:01:26;;;;;;;11.95;7.78;;;17.00;99.90;;;;;;5008316;28;20056;-72
2023/09/28 01:03:54;;;;;;;11.15;6.82;;;17.00;99.90;;;;;;5008379;28;20049;-73
2023/09/28 01:06:20;;;;;;;13.95;7.55;;;17.00;99.90;;;;;;5025117;28;20464;-72
2023/09/28 01:08:46;;;;;;;11.50;7.13;;;17.00;99.90;;;;;;5011582;28;20129;-73
2023/09/28 01:11:12;;;;;;;11.95;7.93;;;17.00;99.90;;;;;;5025648;28;20092;-73
2023/09/28 01:13:39;;;;;;;13.32;7.93;;;17.00;99.90;;;;;;5007741;28;20077;-71
2023/09/28 01:16:05;;;;;;;12.00;7.65;;;17.00;99.90;;;;;;5008885;28;20044;-73
2023/09/28 01:18:31;;;;;;;9.82;7.40;;;17.00;99.90;;;;;;5025428;28;20120;-72
2023/09/28 01:20:58;;;;;;;8.75;6.28;;;17.00;99.90;;;;;;5026102;28;20045;-72
2023/09/28 01:23:24;;;;;;;9.82;6.88;;;16.90;99.90;;;;;;5025281;28;20095;-71
2023/09/28 01:25:50;;;;;;;13.90;7.65;;;16.90;99.90;;;;;;5025126;28;20045;-73
2023/09/28 01:28:18;;;;;;;11.45;7.22;;;16.90;99.90;;;;;;5014373;28;20433;-71
2023/09/28 01:30:48;;;;;;;9.85;6.90;;;16.90;99.90;;;;;;5025852;28;20048;-72
2023/09/28 01:33:14;;;;;;;13.68;7.68;;;16.90;99.90;;;;;;5011607;28;20053;-71
2023/09/28 01:35:40;;;;;;;12.65;6.80;;;16.90;99.90;;;;;;5007614;28;20054;-73
2023/09/28 01:38:30;;;;;;;9.23;6.50;;;16.80;99.90;;;;;;5008297;28;20447;-72
2023/09/28 01:40:56;;;;;;;9.48;7.25;;;16.80;99.90;;;;;;5009326;28;20057;-73
2023/09/28 01:43:22;;;;;;;9.98;6.45;;;16.80;99.90;;;;;;5006712;28;20476;-71
2023/09/28 01:45:49;;;;;;;9.68;6.40;;;16.80;99.90;;;;;;5023432;28;20049;-73
2023/09/28 01:48:15;;;;;;;9.75;5.47;;;16.70;99.90;;;;;;5018475;28;20121;-72
2023/09/28 01:50:41;;;;;;;9.95;6.05;;;16.70;99.90;;;;;;5023614;28;20607;-72
2023/09/28 01:53:07;;;;;;;10.63;5.95;;;16.70;99.90;;;;;;5023857;28;20049;-71
2023/09/28 01:55:33;;;;;;;10.25;5.68;;;16.70;99.90;;;;;;5023271;28;20539;-73
2023/09/28 01:57:59;;;;;;;9.25;6.10;;;16.70;99.90;;;;;;5024309;28;20088;-73
2023/09/28 02:00:26;;;;;;;9.00;5.63;;;16.70;99.90;;;;;;5024893;28;20050;-72
2023/09/28 02:02:54;;;;;;;7.65;5.30;;;16.70;99.90;;;;;;5006627;28;20095;-73
2023/09/28 02:05:25;;;;;;;8.93;5.35;;;16.70;99.90;;;;;;5007022;28;20037;-73
2023/09/28 02:07:51;;;;;;;7.80;4.82;;;16.70;99.90;;;;;;4991172;28;20056;-72
2023/09/28 02:10:17;;;;;;;8.27;5.65;;;16.70;99.90;;;;;;5013984;28;20045;-72
2023/09/28 02:12:44;;;;;;;6.78;5.15;;;16.70;99.90;;;;;;5023006;28;20045;-72
2023/09/28 02:15:10;;;;;;;6.72;5.20;;;16.70;99.90;;;;;;5024454;28;20063;-73
2023/09/28 02:17:39;;;;;;;7.68;4.18;;;16.70;99.90;;;;;;5023604;28;20053;-72
2023/09/28 02:20:08;;;;;;;6.25;4.90;;;16.70;99.90;;;;;;5024009;28;20065;-73
2023/09/28 02:22:43;;;;;;;6.72;4.45;;;16.70;99.90;;;;;;5007386;28;20054;-72
2023/09/28 02:25:10;;;;;;;6.05;4.57;;;16.70;99.90;;;;;;5020349;28;20403;-75
2023/09/28 02:27:36;;;;;;;18.95;5.38;;;16.70;99.90;;;;;;5006823;28;20435;-71
2023/09/28 02:30:04;;;;;;;7.68;4.00;;;16.70;99.90;;;;;;5006687;28;20098;-72
2023/09/28 02:32:30;;;;;;;6.45;3.63;;;16.70;99.90;;;;;;5006019;28;20053;-72
2023/09/28 02:34:55;;;;;;;5.28;3.60;;;16.70;99.90;;;;;;5024292;28;20045;-73
2023/09/28 02:37:21;;;;;;;5.72;4.03;;;16.70;99.90;;;;;;5010868;28;20042;-72
2023/09/28 02:39:47;;;;;;;5.45;3.85;;;16.70;99.90;;;;;;5023759;28;20053;-71
2023/09/28 02:42:12;;;;;;;7.65;4.47;;;16.80;99.90;;;;;;5022602;28;20748;-73
2023/09/28 02:44:38;;;;;;;5.78;3.85;;;16.70;99.90;;;;;;5024878;28;20528;-73
2023/09/28 02:47:05;;;;;;;6.40;3.97;;;16.80;99.90;;;;;;5006513;28;20467;-72
2023/09/28 02:49:32;;;;;;;5.03;3.65;;;16.80;99.90;;;;;;5023568;28;20037;-73
2023/09/28 02:51:57;;;;;;;4.30;3.38;;;16.80;99.90;;;;;;5022888;28;20064;-73
2023/09/28 02:54:23;;;;;;;6.60;4.07;;;16.80;99.90;;;;;;5023625;28;20041;-72
2023/09/28 02:56:50;;;;;;;4.35;3.67;;;16.80;99.90;;;;;;5006154;28;20099;-72
2023/09/28 02:59:16;;;;;;;5.18;3.58;;;16.80;99.90;;;;;;5010038;28;20503;-74
2023/09/28 03:01:42;;;;;;;7.47;4.78;;;16.80;99.90;;;;;;5022119;28;20049;-73
2023/09/28 03:04:08;;;;;;;5.30;3.85;;;16.80;99.90;;;;;;5022596;28;20160;-71
2023/09/28 03:06:40;;;;;;;5.80;3.67;;;16.80;99.90;;;;;;5020918;28;20063;-73
2023/09/28 03:09:08;;;;;;;5.40;4.20;;;16.80;99.90;;;;;;4986266;28;20042;-73
2023/09/28 03:11:36;;;;;;;5.22;3.83;;;16.80;99.90;;;;;;5003502;28;20091;-73
2023/09/28 03:14:03;;;;;;;6.55;5.40;;;16.80;99.90;;;;;;4985658;28;20054;-71
2023/09/28 03:16:29;;;;;;;6.63;4.47;;;16.80;99.90;;;;;;5003054;28;20523;-72
2023/09/28 03:18:57;;;;;;;6.93;4.05;;;16.80;99.90;;;;;;5003956;28;20034;-72
2023/09/28 03:21:23;;;;;;;4.25;3.70;;;16.80;99.90;;;;;;5003732;28;20519;-72
2023/09/28 03:23:49;;;;;;;5.57;3.63;;;16.80;99.90;;;;;;5004027;28;20088;-72
2023/09/28 03:26:15;;;;;;;8.15;4.13;;;16.80;99.90;;;;;;5003122;28;20046;-71
2023/09/28 03:28:41;;;;;;;6.45;4.65;;;16.70;99.90;;;;;;5001354;28;20038;-72
2023/09/28 03:31:07;;;;;;;9.02;4.57;;;16.70;99.90;;;;;;5003990;28;20096;-73
2023/09/28 03:33:32;;;;;;;5.82;4.35;;;16.70;99.90;;;;;;5001826;28;20049;-72
2023/09/28 03:35:58;;;;;;;11.07;3.92;;;16.70;99.90;;;;;;4986040;28;20056;-72
2023/09/28 03:38:24;;;;;;;8.93;4.50;;;16.70;99.90;;;;;;5002182;28;20515;-72
2023/09/28 03:40:49;;;;;;;8.32;3.67;;;16.70;99.90;;;;;;4985495;28;20576;-72
2023/09/28 03:43:15;;;;;;;7.72;4.03;;;16.60;99.90;;;;;;5001238;28;20096;-71
2023/09/28 03:45:41;;;;;;;7.57;4.22;;;16.60;99.90;;;;;;4985262;28;20519;-72
2023/09/28 03:48:07;;;;;;;5.82;3.88;;;16.60;99.90;;;;;;5004265;28;20042;-72
2023/09/28 03:50:33;;;;;;;8.13;3.92;;;16.60;99.90;;;;;;5001400;28;20307;-73
2023/09/28 03:52:59;;;;;;;6.63;4.18;;;16.60;99.90;;;;;;5003709;28;20103;-73
2023/09/28 03:55:24;;;;;;;10.75;4.30;;;16.50;99.90;;;;;;5002955;28;20052;-73
2023/09/28 03:57:51;;;;;;;12.52;4.13;;;16.50;99.90;;;;;;5017753;28;20046;-72
2023/09/28 04:00:18;;;;;;;6.40;4.32;;;16.50;99.90;;;;;;5017959;28;20045;-72
2023/09/28 04:02:45;;;;;;;4.85;3.60;;;16.50;99.90;;;;;;5018281;28;20078;-73
2023/09/28 04:05:11;;;;;;;7.15;3.33;;;16.50;99.90;;;;;;5018071;28;20057;-73
2023/09/28 04:07:40;;;;;;;7.28;4.15;;;16.50;99.90;;;;;;4989274;28;20077;-73
2023/09/28 04:10:06;;;;;;;10.85;4.57;;;16.50;99.90;;;;;;4995475;28;20042;-72
2023/09/28 04:12:32;;;;;;;7.10;3.92;;;16.50;99.90;;;;;;5014435;28;20053;-74
2023/09/28 04:14:58;;;;;;;7.63;3.42;;;16.50;99.90;;;;;;5001457;28;20049;-73
2023/09/28 04:17:24;;;;;;;5.82;3.72;;;16.50;99.90;;;;;;5000703;28;20042;-73
2023/09/28 04:19:50;;;;;;;6.07;3.95;;;16.50;99.90;;;;;;4991665;28;20543;-75
2023/09/28 04:22:16;;;;;;;6.45;3.70;;;16.50;99.90;;;;;;5017635;28;20045;-73
2023/09/28 04:24:42;;;;;;;5.45;3.75;;;16.50;99.90;;;;;;4985566;28;20054;-73
2023/09/28 04:27:08;;;;;;;5.82;3.70;;;16.50;99.90;;;;;;5000830;28;20053;-73
2023/09/28 04:29:37;;;;;;;6.88;3.50;;;16.50;99.90;;;;;;5001686;28;20616;-74
2023/09/28 04:32:03;;;;;;;9.27;4.10;;;16.50;99.90;;;;;;5016977;28;20120;-74
2023/09/28 04:34:29;;;;;;;3.75;2.95;;;16.50;99.90;;;;;;5016494;28;20657;-73
2023/09/28 04:36:57;;;;;;;3.33;2.55;;;16.40;99.90;;;;;;5006547;28;20116;-73
2023/09/28 04:39:24;;;;;;;6.60;2.95;;;16.40;99.90;;;;;;4991844;28;20057;-72
2023/09/28 04:41:54;;;;;;;7.65;2.90;;;16.40;99.90;;;;;;5000747;28;20038;-73
2023/09/28 04:44:20;;;;;;;3.95;2.10;;;16.40;99.90;;;;;;5016594;28;20050;-74
2023/09/28 04:46:48;;;;;;;8.23;2.03;;;16.40;99.90;;;;;;5002820;28;20100;-72
2023/09/28 04:49:14;;;;;;;5.10;2.60;;;16.30;99.90;;;;;;5002488;28;20046;-72
2023/09/28 04:51:39;;;;;;;6.07;1.88;;;16.30;99.90;;;;;;5001135;28;20052;-74
2023/09/28 04:54:06;;;;;;;3.50;1.65;;;16.30;99.90;;;;;;5003267;28;20053;-73
2023/09/28 04:56:32;;;;;;;6.20;1.70;;;16.30;99.90;;;;;;5000432;28;20117;-74
2023/09/28 04:58:59;;;;;;;4.60;1.80;;;16.20;99.90;;;;;;5001208;28;20504;-73
2023/09/28 05:01:25;;;;;;;4.63;1.50;;;16.20;99.90;;;;;;5001922;28;20080;-74
2023/09/28 05:03:51;;;;;;;5.43;1.58;;;16.20;99.90;;;;;;5001522;28;20088;-73
2023/09/28 05:06:16;;;;;;;2.72;1.80;;;16.20;99.90;;;;;;4991042;28;20053;-74
2023/09/28 05:08:42;;;;;;;4.00;2.03;;;16.20;99.90;;;;;;4990999;28;20049;-75
2023/09/28 05:11:09;;;;;;;7.50;2.08;;;16.10;99.90;;;;;;4992885;28;20540;-76
2023/09/28 05:13:35;;;;;;;8.10;1.85;;;16.10;99.90;;;;;;5003670;28;20038;-74
2023/09/28 05:16:00;;;;;;;7.75;1.77;;;16.10;99.90;;;;;;4988612;28;20469;-74
2023/09/28 05:18:26;;;;;;;6.70;1.55;;;16.10;99.90;;;;;;4984430;28;20425;-74
2023/09/28 05:20:52;;;;;;;11.90;1.58;;;16.00;99.90;;;;;;5007196;28;20090;-73
2023/09/28 05:23:17;;;;;;;6.85;2.17;;;16.00;99.90;;;;;;4988005;28;20133;-74
2023/09/28 05:25:43;;;;;;;13.20;2.10;;;16.00;99.90;;;;;;4993638;28;20259;-74
2023/09/28 05:28:09;;;;;;;9.15;1.52;;;16.00;99.90;;;;;;4987561;28;20061;-76
2023/09/28 05:30:36;;;;;;;12.85;2.10;;;16.00;99.90;;;;;;5002582;28;20060;-74
2023/09/28 05:33:01;;;;;;;8.55;2.20;;;15.90;99.90;;;;;;5003039;28;20038;-74
2023/09/28 05:35:27;;;;;;;8.55;2.28;;;15.90;99.90;;;;;;5017329;28;20552;-75
2023/09/28 05:37:53;;;;;;;14.40;2.08;;;15.90;99.90;;;;;;4996330;28;20053;-73
2023/09/28 05:40:18;;;;;;;13.40;2.60;;;16.00;99.90;;;;;;4999994;28;20048;-74
2023/09/28 05:42:44;;;;;;;8.40;1.90;;;15.90;99.90;;;;;;5002362;28;20484;-74
2023/09/28 05:45:09;;;;;;;8.30;2.78;;;16.00;99.90;;;;;;5002530;28;20069;-74
2023/09/28 05:47:35;;;;;;;5.75;1.92;;;16.00;99.90;;;;;;5003227;28;20125;-74
2023/09/28 05:50:05;;;;;;;8.40;2.13;;;15.90;99.90;;;;;;5019597;28;20103;-74
2023/09/28 05:52:31;;;;;;;11.52;2.20;;;15.90;99.90;;;;;;5018497;28;20053;-75
2023/09/28 05:54:57;;;;;;;8.20;2.28;;;15.80;99.90;;;;;;5018831;28;20551;-74
2023/09/28 05:57:22;;;;;;;10.02;1.73;;;15.90;99.90;;;;;;4996827;28;20050;-74
2023/09/28 05:59:49;;;;;;;6.95;1.75;;;15.80;99.90;;;;;;4991951;28;20058;-75
2023/09/28 06:02:15;;;;;;;8.50;1.45;;;15.80;99.90;;;;;;5012534;28;20080;-74
2023/09/28 06:04:43;;;;;;;12.32;2.50;;;15.80;99.90;;;;;;5007985;28;20074;-75
2023/09/28 06:07:12;;;;;;;6.25;1.73;;;15.80;99.90;;;;;;4995226;28;20049;-76
2023/09/28 06:09:38;;;;;;;11.07;2.38;;;15.90;99.90;;;;;;5012854;28;20289;-74
2023/09/28 06:12:05;;;;;;;9.70;2.53;;;15.90;99.90;;;;;;5002739;28;20121;-74
2023/09/28 06:14:30;;;;;;;8.35;1.95;;;15.80;99.90;;;;;;5001285;28;20080;-74
2023/09/28 06:16:56;;;;;;;11.23;2.25;;;15.90;99.90;;;;;;4984410;28;20289;-74
2023/09/28 06:19:22;;;;;;;9.30;2.00;;;15.80;99.90;;;;;;5000867;28;20475;-75
2023/09/28 06:21:47;;;;;;;11.18;2.15;;;15.80;99.90;;;;;;5003299;28;20076;-74
2023/09/28 06:24:13;;;;;;;14.10;2.17;;;15.80;99.90;;;;;;5018516;28;20337;-72
2023/09/28 06:26:39;;;;;;;14.82;2.85;;;15.80;99.90;;;;;;5001470;28;20042;-73
2023/09/28 06:29:04;;;;;;;5.68;1.63;;;15.80;99.90;;;;;;5000869;28;20373;-71
2023/09/28 06:31:30;;;;;;;13.13;1.85;;;15.80;99.90;;;;;;5018663;28;20050;-72
2023/09/28 06:33:56;;;;;;;12.32;2.20;;;15.80;99.90;;;;;;4995313;28;20042;-72
2023/09/28 06:36:24;;;;;;;10.00;1.92;;;15.90;99.90;;;;;;4985727;28;20521;-71
2023/09/28 06:38:50;;;;;;;7.75;3.08;;;15.80;99.90;;;;;;5002239;28;20045;-71
2023/09/28 06:41:15;;;;;;;12.25;2.85;;;15.90;99.90;;;;;;5001553;28;20037;-72
2023/09/28 06:43:41;;;;;;;8.93;1.90;;;15.90;99.90;;;;;;5001460;28;20345;-72
2023/09/28 06:46:08;;;;;;;7.50;1.52;;;15.90;99.90;;;;;;5001732;28;20404;-71
2023/09/28 06:48:34;;;;;;;8.70;3.65;;;16.00;99.90;;;;;;4993015;28;20072;-72
2023/09/28 06:50:59;;;;;;;6.13;1.70;;;16.00;99.90;;;;;;5017845;28;20325;-72
2023/09/28 06:53:26;;;;;;;17.02;3.33;;;16.00;99.90;;;;;;5002448;28;20038;-72
2023/09/28 06:55:52;;;;;;;12.57;1.77;;;16.10;99.90;;;;;;5002406;28;20052;-72
2023/09/28 06:58:18;;;;;;;14.68;2.20;;;16.10;99.90;;;;;;5001332;28;20038;-72
2023/09/28 07:00:46;;;;;;;12.10;2.42;;;16.10;99.90;;;;;;5002714;28;20076;-72
2023/09/28 07:03:13;;;;;;;8.55;1.48;;;16.20;99.90;;;;;;5001292;28;20468;-72
2023/09/28 07:05:39;;;;;;;8.20;2.92;;;16.20;99.90;;;;;;5017495;28;20053;-73
2023/09/28 07:08:06;;;;;;;13.63;2.67;;;16.20;99.90;;;;;;4983750;28;20057;-72
2023/09/28 07:10:33;;;;;;;13.68;2.50;;;16.20;99.90;;;;;;4982932;28;20077;-72
2023/09/28 07:13:05;;;;;;;18.80;3.10;;;16.30;99.90;;;;;;4982251;28;20042;-72
2023/09/28 07:15:31;;;;;;;14.60;2.75;;;16.30;99.90;;;;;;4980903;28;20088;-72
2023/09/28 07:17:57;;;;;;;10.82;2.33;;;16.30;99.90;;;;;;4982251;28;20072;-72
2023/09/28 07:20:23;;;;;;;6.80;2.72;;;16.30;99.90;;;;;;4982493;28;20050;-72
2023/09/28 07:22:49;;;;;;;8.73;1.60;;;16.40;99.90;;;;;;4997649;28;20137;-72
2023/09/28 07:25:15;;;;;;;8.75;2.30;;;16.40;99.90;;;;;;4981289;28;20117;-72
2023/09/28 07:27:42;;;;;;;9.35;2.15;;;16.40;99.90;;;;;;4981156;28;20050;-72
2023/09/28 07:30:08;;;;;;;10.65;1.92;;;16.40;99.90;;;;;;4982473;28;20108;-72
2023/09/28 07:32:34;;;;;;;18.60;2.75;;;16.50;99.90;;;;;;4981503;28;20492;-73
2023/09/28 07:35:01;;;;;;;11.40;2.20;;;16.50;99.90;;;;;;4982356;28;20544;-72
2023/09/28 07:37:30;;;;;;;6.60;1.50;;;16.50;99.90;;;;;;4996617;28;20077;-72
2023/09/28 07:39:56;;;;;;;9.38;2.10;;;16.60;99.90;;;;;;4982296;28;20357;-72
2023/09/28 07:42:23;;;;;;;10.07;2.30;;;16.60;99.90;;;;;;4996495;28;20387;-72
2023/09/28 07:44:51;;;;;;;13.43;2.17;;;16.60;99.90;;;;;;4980190;28;20039;-72
2023/09/28 07:47:19;;;;;;;11.38;2.00;;;16.70;99.90;;;;;;4981002;28;20039;-72
2023/09/28 07:49:48;;;;;;;14.95;2.35;;;16.70;99.90;;;;;;4980890;28;20042;-73
2023/09/28 07:52:14;;;;;;;7.05;2.00;;;16.70;99.90;;;;;;4980498;28;20255;-72
2023/09/28 07:54:39;;;;;;;8.63;1.75;;;16.80;99.90;;;;;;4981095;28;20039;-73
2023/09/28 07:57:07;;;;;;;7.32;1.73;;;16.80;99.90;;;;;;4995857;28;20073;-73
2023/09/28 07:59:34;;;;;;;10.55;1.67;;;16.80;99.90;;;;;;4981650;28;20295;-72
2023/09/28 08:02:00;;;;;;;7.07;3.17;;;16.90;99.90;;;;;;4980988;28;20377;-72
2023/09/28 08:04:26;;;;;;;8.05;2.10;;;16.90;99.90;;;;;;4996296;28;20141;-71
2023/09/28 08:06:52;;;;;;;13.38;1.52;;;16.90;99.90;;;;;;4987749;28;20049;-72
2023/09/28 08:09:19;;;;;;;16.83;2.63;;;16.90;99.90;;;;;;5012314;28;20053;-72
2023/09/28 08:11:50;;;;;;;10.60;2.45;;;16.90;99.90;;;;;;5018891;28;20054;-72
2023/09/28 08:14:17;;;;;;;5.65;2.15;;;17.00;99.90;;;;;;5020850;28;20057;-73
2023/09/28 08:16:45;;;;;;;13.85;1.65;;;17.00;99.90;;;;;;5003402;28;20048;-71
2023/09/28 08:19:11;;;;;;;11.95;1.80;;;17.00;99.90;;;;;;5020235;28;20048;-73
2023/09/28 08:21:38;;;;;;;13.88;2.42;;;17.00;99.90;;;;;;5003558;28;20038;-72
2023/09/28 08:24:08;;;;;;;9.27;1.95;;;17.10;99.90;;;;;;5004118;28;20037;-72
2023/09/28 08:26:35;;;;;;;6.55;1.70;;;17.10;99.90;;;;;;5002567;28;20046;-72
2023/09/28 08:29:01;;;;;;;7.57;1.88;;;17.10;99.90;;;;;;5020640;28;20411;-72
2023/09/28 08:31:27;;;;;;;5.85;1.63;;;17.10;99.90;;;;;;5002543;28;20554;-72
2023/09/28 08:33:53;;;;;;;5.78;1.65;;;17.10;99.90;;;;;;5003160;28;20049;-72
2023/09/28 08:36:21;;;;;;;3.90;1.63;;;17.10;99.90;;;;;;5003462;28;20456;-72
2023/09/28 08:38:48;;;;;;;6.80;1.73;;;17.20;99.90;;;;;;5020586;28;20041;-72
2023/09/28 08:41:16;;;;;;;5.90;1.92;;;17.20;99.90;;;;;;5018855;28;20401;-74
2023/09/28 08:43:44;;;;;;;15.02;1.90;;;17.20;99.90;;;;;;5003202;28;20655;-72
2023/09/28 08:46:13;;;;;;;9.77;1.42;;;17.20;99.90;;;;;;5020354;28;20041;-73
2023/09/28 08:48:44;;;;;;;23.10;2.38;;;17.30;99.90;;;;;;5003623;28;20042;-74
2023/09/28 08:51:11;;;;;;;13.10;2.75;;;17.30;99.90;;;;;;5002916;28;20037;-73
2023/09/28 08:53:38;;;;;;;7.28;1.63;;;17.30;99.90;;;;;;5019561;28;20407;-72
2023/09/28 08:56:05;;;;;;;7.20;1.58;;;17.30;99.90;;;;;;5019785;28;20046;-73
2023/09/28 08:58:35;;;;;;;6.07;2.00;;;17.20;99.90;;;;;;4985615;28;20052;-72
2023/09/28 09:01:03;;;;;;;6.07;2.60;;;17.30;99.90;;;;;;5006089;28;20155;-72
2023/09/28 09:03:31;;;;;;;14.05;1.67;;;17.20;99.90;;;;;;5024483;28;20103;-72
2023/09/28 09:05:57;;;;;;;9.13;1.67;;;17.30;99.90;;;;;;4990529;28;20045;-72
2023/09/28 09:08:25;;;;;;;13.05;2.15;;;17.30;99.90;;;;;;4985852;28;20056;-73
2023/09/28 09:10:52;;;;;;;14.30;3.22;;;17.30;99.90;;;;;;5005031;28;20125;-73
2023/09/28 09:13:18;;;;;;;9.20;1.77;;;17.30;99.90;;;;;;4985774;28;20092;-72
2023/09/28 09:15:44;;;;;;;11.18;2.30;;;17.30;99.90;;;;;;4970846;28;20054;-72
2023/09/28 09:18:19;;;;;;;6.95;1.95;;;17.40;99.90;;;;;;4985818;28;20507;-73
2023/09/28 09:20:46;;;;;;;9.07;1.52;;;17.40;99.90;;;;;;4986460;28;20125;-72
2023/09/28 09:23:16;;;;;;;16.42;2.45;;;17.40;99.90;;;;;;4986356;28;20126;-72
2023/09/28 09:25:53;;;;;;;23.55;2.78;;;17.40;99.90;;;;;;4986605;28;20045;-73
2023/09/28 09:28:34;;;;;;;13.25;1.85;;;17.40;99.90;;;;;;4985571;28;20046;-72
2023/09/28 09:31:01;;;;;;;11.57;1.80;;;17.50;99.90;;;;;;4986986;28;20049;-72
2023/09/28 09:33:28;;;;;;;6.22;1.77;;;17.60;99.90;;;;;;5002639;28;20083;-72
2023/09/28 09:35:54;;;;;;;8.02;1.90;;;17.60;99.90;;;;;;4986229;28;20077;-72
2023/09/28 09:38:38;;;;;;;14.45;1.98;;;17.60;99.90;;;;;;4986177;28;20513;-72
2023/09/28 09:41:08;;;;;;;12.30;2.55;;;17.70;99.90;;;;;;5004457;28;20041;-74
2023/09/28 09:43:35;;;;;;;7.03;1.65;;;17.70;99.90;;;;;;4987094;28;20512;-72
2023/09/28 09:46:06;;;;;;;16.20;2.08;;;17.70;99.90;;;;;;4986409;28;21291;-72
2023/09/28 09:48:53;;;;;;;7.00;1.70;;;17.70;99.90;;;;;;4985800;28;20083;-72
2023/09/28 09:51:18;;;;;;;10.50;2.20;;;17.80;99.90;;;;;;4995758;28;20033;-72
2023/09/28 09:53:46;;;;;;;9.50;1.80;;;17.80;99.90;;;;;;5008746;28;20049;-72
2023/09/28 09:56:13;;;;;;;12.60;2.22;;;17.90;99.90;;;;;;5024024;28;20416;-72
2023/09/28 09:58:48;;;;;;;7.00;1.10;;;17.90;99.90;;;;;;5012428;28;20053;-74
2023/09/28 10:01:16;;;;;;;8.50;1.65;;;17.90;99.90;;;;;;5022863;28;20049;-73
2023/09/28 10:03:50;;;;;;;5.53;1.50;;;17.90;99.90;;;;;;5023276;28;20056;-75
2023/09/28 10:06:27;;;;;;;10.43;1.70;;;17.90;99.90;;;;;;5019803;28;20041;-74
2023/09/28 10:08:53;;;;;;;5.72;1.48;;;17.90;99.90;;;;;;4995347;28;20057;-74
2023/09/28 10:11:20;;;;;;;5.07;1.33;;;17.90;99.90;;;;;;5001011;28;20053;-74
2023/09/28 10:13:48;;;;;;;5.38;1.80;;;17.90;99.90;;;;;;5003791;28;20064;-75
2023/09/28 10:16:17;;;;;;;8.98;1.52;;;18.00;99.90;;;;;;5003399;28;20052;-75
2023/09/28 10:18:47;;;;;;;8.23;1.42;;;18.00;99.90;;;;;;5018395;28;20049;-74
2023/09/28 10:21:14;;;;;;;7.53;2.63;;;18.00;99.90;;;;;;5019677;28;20050;-74
2023/09/28 10:23:40;;;;;;;9.32;1.63;;;18.10;99.90;;;;;;5003721;28;20069;-74
2023/09/28 10:26:17;;;;;;;8.88;1.83;;;18.10;99.90;;;;;;5017517;28;20465;-74
2023/09/28 10:29:10;;;;;;;10.80;1.10;;;18.10;99.90;;;;;;5011319;28;20051;-74
2023/09/28 10:31:37;;;;;;;4.32;1.48;;;18.10;99.90;;;;;;4995456;28;20580;-75
2023/09/28 10:34:04;;;;;;;9.50;1.75;;;18.20;99.90;;;;;;4987031;28;20046;-75
2023/09/28 10:36:31;;;;;;;10.13;2.10;;;18.20;99.90;;;;;;4993399;28;20515;-74
2023/09/28 10:39:14;;;;;;;5.00;1.73;;;18.20;99.90;;;;;;4989446;28;20041;-75
2023/09/28 10:41:51;;;;;;;7.78;1.98;;;18.20;99.90;;;;;;4997324;28;20045;-75
2023/09/28 10:44:21;;;;;;;9.98;1.35;;;18.20;99.90;;;;;;4996061;28;20320;-75
2023/09/28 10:46:49;;;;;;;6.53;1.92;;;18.20;99.90;;;;;;5002328;28;20334;-74
2023/09/28 10:49:26;;;;;;;5.55;1.70;;;18.20;99.90;;;;;;4984707;28;20049;-74
2023/09/28 10:51:52;;;;;;;8.05;1.38;;;18.30;99.90;;;;;;5013974;28;20054;-75
2023/09/28 10:54:19;;;;;;;7.18;1.73;;;18.30;99.90;;;;;;4998663;28;20046;-75
2023/09/28 10:56:48;;;;;;;6.47;1.90;;;18.30;99.90;;;;;;4992450;28;20048;-75
2023/09/28 10:59:15;;;;;;;3.58;1.70;;;18.40;99.90;;;;;;5001165;28;20046;-75
2023/09/28 11:01:45;;;;;;;9.23;2.15;;;18.40;99.90;;;;;;5001269;28;20038;-75
2023/09/28 11:04:12;;;;;;;6.82;1.80;;;18.40;99.90;;;;;;5001501;28;20077;-75
2023/09/28 11:06:44;;;;;;;5.57;1.58;;;18.40;99.90;;;;;;4998502;28;20097;-74
2023/09/28 11:09:13;;;;;;;11.65;1.83;;;18.50;99.90;;;;;;5001063;28;20539;-77
2023/09/28 11:11:42;;;;;;;7.80;1.55;;;18.50;99.90;;;;;;5000379;28;20050;-77
2023/09/28 11:14:10;;;;;;;6.82;1.20;;;18.50;99.90;;;;;;4985069;28;20035;-76
2023/09/28 11:16:38;;;;;;;8.00;1.40;;;18.50;99.90;;;;;;5002293;28;20116;-77
2023/09/28 11:19:04;;;;;;;4.05;1.48;;;18.50;99.90;;;;;;5001640;28;20061;-75
2023/09/28 11:21:31;;;;;;;6.07;1.10;;;18.60;99.90;;;;;;5000676;28;20076;-75
2023/09/28 11:23:57;;;;;;;6.18;1.85;;;18.60;99.90;;;;;;5017429;28;20045;-75
2023/09/28 11:26:24;;;;;;;5.60;1.40;;;18.60;99.90;;;;;;5000907;28;20053;-75
2023/09/28 11:28:51;;;;;;;5.80;1.27;;;18.70;99.90;;;;;;5002701;28;20325;-76
2023/09/28 11:31:17;;;;;;;7.32;1.52;;;18.60;99.90;;;;;;4996248;28;20162;-76
2023/09/28 11:33:46;;;;;;;5.63;1.67;;;18.70;99.90;;;;;;4997791;28;20046;-76
2023/09/28 11:36:22;;;;;;;10.82;1.48;;;18.70;99.90;;;;;;5000348;28;20042;-76
2023/09/28 11:38:48;;;;;;;9.00;1.33;;;18.80;99.90;;;;;;5000991;28;20050;-78
2023/09/28 11:41:15;;;;;;;12.80;1.98;;;18.70;99.90;;;;;;4999406;28;20053;-78
2023/09/28 11:43:56;;;;;;;9.27;2.28;;;18.70;99.90;;;;;;5017502;28;20050;-78
2023/09/28 11:46:31;;;;;;;13.45;3.00;;;18.70;99.90;;;;;;5000206;28;20129;-76
2023/09/28 11:49:06;;;;;;;8.40;2.50;;;18.80;99.90;;;;;;4999022;28;20515;-79
2023/09/28 11:51:36;;;;;;;6.47;1.60;;;18.80;99.90;;;;;;4998068;28;20120;-78
2023/09/28 11:54:05;;;;;;;9.43;2.00;;;18.80;99.90;;;;;;5009447;28;20045;-77
2023/09/28 11:56:31;;;;;;;5.30;1.27;;;18.80;99.90;;;;;;4995859;28;20401;-79
2023/09/28 11:58:57;;;;;;;12.27;2.50;;;18.80;99.90;;;;;;5010109;28;20052;-77
2023/09/28 12:01:23;;;;;;;14.07;2.05;;;18.80;99.90;;;;;;4998890;28;20033;-76
2023/09/28 12:03:49;;;;;;;9.75;2.60;;;18.80;99.90;;;;;;4996848;28;20041;-75
2023/09/28 12:06:17;;;;;;;7.18;1.90;;;18.70;99.90;;;;;;4999745;28;20050;-73
2023/09/28 12:08:43;;;;;;;12.10;3.13;;;18.70;99.90;;;;;;4994379;28;20056;-74
2023/09/28 12:11:09;;;;;;;9.35;2.00;;;18.70;99.90;;;;;;4999304;28;20045;-74
2023/09/28 12:13:36;;;;;;;9.63;1.92;;;18.70;99.90;;;;;;4992923;28;20038;-73
2023/09/28 12:16:05;;;;;;;5.28;1.25;;;18.70;99.90;;;;;;5001481;28;20125;-74
2023/09/28 12:18:32;;;;;;;3.85;0.98;;;18.70;99.90;;;;;;5001606;28;20137;-73
2023/09/28 12:20:58;;;;;;;7.35;1.73;;;18.70;99.90;;;;;;5017637;28;20053;-73
2023/09/28 12:23:25;;;;;;;6.72;1.95;;;18.70;99.90;;;;;;5002781;28;20042;-74
2023/09/28 12:25:51;;;;;;;6.68;1.30;;;18.70;99.90;;;;;;4999791;28;20046;-74
2023/09/28 12:28:17;;;;;;;5.78;1.63;;;18.70;99.90;;;;;;5000840;28;20038;-74
2023/09/28 12:30:43;;;;;;;6.53;1.45;;;18.80;99.90;;;;;;5000878;28;20060;-73
2023/09/28 12:33:09;;;;;;;7.22;1.40;;;18.80;99.90;;;;;;5001784;28;20045;-75
2023/09/28 12:35:39;;;;;;;9.93;1.77;;;18.80;99.90;;;;;;5022362;28;20045;-73
2023/09/28 12:38:07;;;;;;;9.95;1.58;;;18.80;99.90;;;;;;5021782;28;20049;-73
2023/09/28 12:40:33;;;;;;;14.98;2.58;;;18.80;99.90;;;;;;5019856;28;20071;-74
2023/09/28 12:43:08;;;;;;;8.45;1.48;;;18.90;99.90;;;;;;5004408;28;20132;-73
2023/09/28 12:45:35;;;;;;;13.60;1.50;;;18.90;99.90;;;;;;5022283;28;20466;-73